sensor_id;sensor_type;location;lat;lon;timestamp;temperature;humidity
9437;DHT22;4757;59.334;18.034;2023-04-05T00:02:24;-1.20;99.90
9437;DHT22;4757;59.334;18.034;2023-04-05T00:04:56;-1.30;99.90
9437;DHT22;4757;59.334;18.034;2023-04-05T00:07:24;-1.30;99.90
9437;DHT22;4757;59.334;18.034;2023-04-05T00:09:52;-1.30;99.90
9437;DHT22;4757;59.334;18.034;2023-04-05T00:12:19;-1.30;99.90
9437;DHT22;4757;59.334;18.034;2023-04-05T00:14:46;-1.30;99.90
9437;DHT22;4757;59.334;18.034;2023-04-05T00:17:14;-1.30;99.90
9437;DHT22;4757;59.334;18.034;2023-04-05T00:19:41;-1.30;99.90
9437;DHT22;4757;59.334;18.034;2023-04-05T00:22:08;-1.30;99.90
9437;DHT22;4757;59.334;18.034;2023-04-05T00:24:37;-1.30;99.90
9437;DHT22;4757;59.334;18.034;2023-04-05T00:27:07;-1.30;99.90
9437;DHT22;4757;59.334;18.034;2023-04-05T00:29:34;-1.30;99.90
9437;DHT22;4757;59.334;18.034;2023-04-05T00:32:02;-1.30;99.90
9437;DHT22;4757;59.334;18.034;2023-04-05T00:34:32;-1.30;99.90
9437;DHT22;4757;59.334;18.034;2023-04-05T00:36:59;-1.40;99.90
9437;DHT22;4757;59.334;18.034;2023-04-05T00:39:26;-1.40;99.90
9437;DHT22;4757;59.334;18.034;2023-04-05T00:41:54;-1.50;99.90
9437;DHT22;4757;59.334;18.034;2023-04-05T00:44:21;-1.50;99.90
9437;DHT22;4757;59.334;18.034;2023-04-05T00:46:48;-1.50;99.90
9437;DHT22;4757;59.334;18.034;2023-04-05T00:49:19;-1.40;99.90
9437;DHT22;4757;59.334;18.034;2023-04-05T00:51:56;-1.50;99.90
9437;DHT22;4757;59.334;18.034;2023-04-05T00:54:24;-1.50;99.90
9437;DHT22;4757;59.334;18.034;2023-04-05T00:56:51;-1.50;99.90
9437;DHT22;4757;59.334;18.034;2023-04-05T00:59:19;-1.50;99.90
9437;DHT22;4757;59.334;18.034;2023-04-05T01:01:51;-1.50;99.90
9437;DHT22;4757;59.334;18.034;2023-04-05T01:04:24;-1.50;99.90
9437;DHT22;4757;59.334;18.034;2023-04-05T01:07:06;-1.50;99.90
9437;DHT22;4757;59.334;18.034;2023-04-05T01:09:56;-1.50;99.90
9437;DHT22;4757;59.334;18.034;2023-04-05T01:12:29;-1.50;99.90
9437;DHT22;4757;59.334;18.034;2023-04-05T01:14:59;-1.60;99.90
9437;DHT22;4757;59.334;18.034;2023-04-05T01:17:28;-1.60;99.90
9437;DHT22;4757;59.334;18.034;2023-04-05T01:19:59;-1.60;99.90
9437;DHT22;4757;59.334;18.034;2023-04-05T01:30:37;-1.80;99.90
9437;DHT22;4757;59.334;18.034;2023-04-05T01:33:43;-1.80;99.90
9437;DHT22;4757;59.334;18.034;2023-04-05T01:36:26;-1.80;99.90
9437;DHT22;4757;59.334;18.034;2023-04-05T01:38:57;-1.90;99.90
9437;DHT22;4757;59.334;18.034;2023-04-05T01:41:24;-1.90;99.90
9437;DHT22;4757;59.334;18.034;2023-04-05T01:43:52;-1.90;99.90
9437;DHT22;4757;59.334;18.034;2023-04-05T01:46:19;-1.90;99.90
9437;DHT22;4757;59.334;18.034;2023-04-05T01:48:46;-1.80;99.90
9437;DHT22;4757;59.334;18.034;2023-04-05T01:51:13;-1.90;99.90
9437;DHT22;4757;59.334;18.034;2023-04-05T01:53:40;-1.80;99.90
9437;DHT22;4757;59.334;18.034;2023-04-05T01:56:07;-1.90;99.90
9437;DHT22;4757;59.334;18.034;2023-04-05T01:58:34;-1.90;99.90
9437;DHT22;4757;59.334;18.034;2023-04-05T02:01:01;-1.90;99.90
9437;DHT22;4757;59.334;18.034;2023-04-05T02:03:28;-1.90;99.90
9437;DHT22;4757;59.334;18.034;2023-04-05T02:05:56;-1.90;99.90
9437;DHT22;4757;59.334;18.034;2023-04-05T02:08:23;-1.90;99.90
9437;DHT22;4757;59.334;18.034;2023-04-05T02:10:52;-1.90;99.90
9437;DHT22;4757;59.334;18.034;2023-04-05T02:13:19;-1.80;99.90
9437;DHT22;4757;59.334;18.034;2023-04-05T02:15:50;-1.90;99.90
9437;DHT22;4757;59.334;18.034;2023-04-05T02:18:17;-1.80;99.90
9437;DHT22;4757;59.334;18.034;2023-04-05T02:21:06;-1.80;99.90
9437;DHT22;4757;59.334;18.034;2023-04-05T02:23:34;-1.90;99.90
9437;DHT22;4757;59.334;18.034;2023-04-05T02:26:01;-2.00;99.90
9437;DHT22;4757;59.334;18.034;2023-04-05T02:28:28;-1.90;99.90
9437;DHT22;4757;59.334;18.034;2023-04-05T02:30:55;-1.90;99.90
9437;DHT22;4757;59.334;18.034;2023-04-05T02:33:22;-2.00;99.90
9437;DHT22;4757;59.334;18.034;2023-04-05T02:35:51;-2.00;99.90
9437;DHT22;4757;59.334;18.034;2023-04-05T02:38:18;-2.00;99.90
9437;DHT22;4757;59.334;18.034;2023-04-05T02:40:47;-2.00;99.90
9437;DHT22;4757;59.334;18.034;2023-04-05T02:43:14;-2.00;99.90
9437;DHT22;4757;59.334;18.034;2023-04-05T02:45:42;-2.00;99.90
9437;DHT22;4757;59.334;18.034;2023-04-05T02:48:12;-2.00;99.90
9437;DHT22;4757;59.334;18.034;2023-04-05T02:50:39;-2.00;99.90
9437;DHT22;4757;59.334;18.034;2023-04-05T02:53:06;-2.00;99.90
9437;DHT22;4757;59.334;18.034;2023-04-05T02:55:33;-2.00;99.90
9437;DHT22;4757;59.334;18.034;2023-04-05T02:58:00;-2.00;99.90
9437;DHT22;4757;59.334;18.034;2023-04-05T03:00:28;-2.00;99.90
9437;DHT22;4757;59.334;18.034;2023-04-05T03:02:55;-2.00;99.90
9437;DHT22;4757;59.334;18.034;2023-04-05T03:05:22;-2.00;99.90
9437;DHT22;4757;59.334;18.034;2023-04-05T03:07:49;-2.10;99.90
9437;DHT22;4757;59.334;18.034;2023-04-05T03:10:20;-2.10;99.90
9437;DHT22;4757;59.334;18.034;2023-04-05T03:12:48;-2.00;99.90
9437;DHT22;4757;59.334;18.034;2023-04-05T03:15:17;-2.00;99.90
9437;DHT22;4757;59.334;18.034;2023-04-05T03:17:44;-2.00;99.90
9437;DHT22;4757;59.334;18.034;2023-04-05T03:20:11;-2.00;99.90
9437;DHT22;4757;59.334;18.034;2023-04-05T03:22:39;-2.00;99.90
9437;DHT22;4757;59.334;18.034;2023-04-05T03:25:06;-2.00;99.90
9437;DHT22;4757;59.334;18.034;2023-04-05T03:27:34;-2.00;99.90
9437;DHT22;4757;59.334;18.034;2023-04-05T03:30:02;-2.00;99.90
9437;DHT22;4757;59.334;18.034;2023-04-05T03:32:29;-2.00;99.90
9437;DHT22;4757;59.334;18.034;2023-04-05T03:34:56;-2.00;99.90
9437;DHT22;4757;59.334;18.034;2023-04-05T03:37:23;-2.10;99.90
9437;DHT22;4757;59.334;18.034;2023-04-05T03:39:53;-2.00;99.90
9437;DHT22;4757;59.334;18.034;2023-04-05T03:42:46;-2.00;99.90
9437;DHT22;4757;59.334;18.034;2023-04-05T03:45:33;-2.00;99.90
9437;DHT22;4757;59.334;18.034;2023-04-05T03:48:05;-2.00;99.90
9437;DHT22;4757;59.334;18.034;2023-04-05T03:50:32;-2.00;99.90
9437;DHT22;4757;59.334;18.034;2023-04-05T03:52:59;-2.00;99.90
9437;DHT22;4757;59.334;18.034;2023-04-05T03:55:26;-2.00;99.90
9437;DHT22;4757;59.334;18.034;2023-04-05T03:57:53;-2.00;99.90
9437;DHT22;4757;59.334;18.034;2023-04-05T04:00:21;-2.10;99.90
9437;DHT22;4757;59.334;18.034;2023-04-05T04:02:49;-1.90;99.90
9437;DHT22;4757;59.334;18.034;2023-04-05T04:05:18;-2.00;99.90
9437;DHT22;4757;59.334;18.034;2023-04-05T04:07:47;-2.10;99.90
9437;DHT22;4757;59.334;18.034;2023-04-05T04:10:15;-2.00;99.90
9437;DHT22;4757;59.334;18.034;2023-04-05T04:12:48;-2.10;99.90
9437;DHT22;4757;59.334;18.034;2023-04-05T04:15:15;-2.10;99.90
9437;DHT22;4757;59.334;18.034;2023-04-05T04:17:42;-2.00;99.90
9437;DHT22;4757;59.334;18.034;2023-04-05T04:20:09;-2.00;99.90
9437;DHT22;4757;59.334;18.034;2023-04-05T04:22:40;-2.10;99.90
9437;DHT22;4757;59.334;18.034;2023-04-05T04:25:08;-2.00;99.90
9437;DHT22;4757;59.334;18.034;2023-04-05T04:27:38;-2.00;99.90
9437;DHT22;4757;59.334;18.034;2023-04-05T04:30:10;-2.00;99.90
9437;DHT22;4757;59.334;18.034;2023-04-05T04:32:38;-1.90;99.90
9437;DHT22;4757;59.334;18.034;2023-04-05T04:35:28;-1.90;99.90
9437;DHT22;4757;59.334;18.034;2023-04-05T04:37:57;-1.90;99.90
9437;DHT22;4757;59.334;18.034;2023-04-05T04:40:35;-1.90;99.90
9437;DHT22;4757;59.334;18.034;2023-04-05T04:43:10;-2.00;99.90
9437;DHT22;4757;59.334;18.034;2023-04-05T04:45:46;-1.90;99.90
9437;DHT22;4757;59.334;18.034;2023-04-05T04:48:14;-1.80;99.90
9437;DHT22;4757;59.334;18.034;2023-04-05T04:50:43;-1.80;99.90
9437;DHT22;4757;59.334;18.034;2023-04-05T04:53:11;-1.80;99.90
9437;DHT22;4757;59.334;18.034;2023-04-05T04:55:39;-1.80;99.90
9437;DHT22;4757;59.334;18.034;2023-04-05T04:58:10;-1.80;99.90
9437;DHT22;4757;59.334;18.034;2023-04-05T05:00:40;-1.70;99.90
9437;DHT22;4757;59.334;18.034;2023-04-05T05:03:07;-1.70;99.90
9437;DHT22;4757;59.334;18.034;2023-04-05T05:05:44;-1.60;99.90
9437;DHT22;4757;59.334;18.034;2023-04-05T05:08:12;-1.70;99.90
9437;DHT22;4757;59.334;18.034;2023-04-05T05:10:39;-1.60;99.90
9437;DHT22;4757;59.334;18.034;2023-04-05T05:13:06;-1.60;99.90
9437;DHT22;4757;59.334;18.034;2023-04-05T05:15:34;-1.50;99.90
9437;DHT22;4757;59.334;18.034;2023-04-05T05:18:01;-1.50;99.90
9437;DHT22;4757;59.334;18.034;2023-04-05T05:20:29;-1.40;99.90
9437;DHT22;4757;59.334;18.034;2023-04-05T05:22:57;-1.40;99.90
9437;DHT22;4757;59.334;18.034;2023-04-05T05:25:26;-1.30;99.90
9437;DHT22;4757;59.334;18.034;2023-04-05T05:27:54;-1.30;99.90
9437;DHT22;4757;59.334;18.034;2023-04-05T05:30:21;-1.20;99.90
9437;DHT22;4757;59.334;18.034;2023-04-05T05:32:48;-1.20;99.90
9437;DHT22;4757;59.334;18.034;2023-04-05T05:35:15;-1.20;99.90
9437;DHT22;4757;59.334;18.034;2023-04-05T05:37:43;-1.20;99.90
9437;DHT22;4757;59.334;18.034;2023-04-05T05:40:10;-1.10;99.90
9437;DHT22;4757;59.334;18.034;2023-04-05T05:42:39;-1.00;99.90
9437;DHT22;4757;59.334;18.034;2023-04-05T05:45:06;-0.90;99.90
9437;DHT22;4757;59.334;18.034;2023-04-05T05:47:33;-0.90;99.90
9437;DHT22;4757;59.334;18.034;2023-04-05T05:50:01;-0.90;99.90
9437;DHT22;4757;59.334;18.034;2023-04-05T05:52:28;-0.90;99.90
9437;DHT22;4757;59.334;18.034;2023-04-05T05:54:55;-0.80;99.90
9437;DHT22;4757;59.334;18.034;2023-04-05T05:57:22;-0.70;99.90
9437;DHT22;4757;59.334;18.034;2023-04-05T05:59:49;-0.50;99.90
9437;DHT22;4757;59.334;18.034;2023-04-05T06:02:16;-0.40;99.90
9437;DHT22;4757;59.334;18.034;2023-04-05T06:04:43;-0.40;99.90
9437;DHT22;4757;59.334;18.034;2023-04-05T06:07:11;-0.50;99.90
9437;DHT22;4757;59.334;18.034;2023-04-05T06:09:38;-0.40;99.90
9437;DHT22;4757;59.334;18.034;2023-04-05T06:12:05;-0.50;99.90
9437;DHT22;4757;59.334;18.034;2023-04-05T06:14:32;-0.60;99.90
9437;DHT22;4757;59.334;18.034;2023-04-05T06:16:59;-0.50;99.90
9437;DHT22;4757;59.334;18.034;2023-04-05T06:19:26;-0.60;99.90
9437;DHT22;4757;59.334;18.034;2023-04-05T06:21:53;-0.60;99.90
9437;DHT22;4757;59.334;18.034;2023-04-05T06:24:21;-0.50;99.90
9437;DHT22;4757;59.334;18.034;2023-04-05T06:26:49;-0.50;99.90
9437;DHT22;4757;59.334;18.034;2023-04-05T06:29:17;-0.40;99.90
9437;DHT22;4757;59.334;18.034;2023-04-05T06:31:44;-0.40;99.90
9437;DHT22;4757;59.334;18.034;2023-04-05T06:34:13;-0.30;99.90
9437;DHT22;4757;59.334;18.034;2023-04-05T06:36:40;-0.20;99.90
9437;DHT22;4757;59.334;18.034;2023-04-05T06:39:08;-0.20;99.90
9437;DHT22;4757;59.334;18.034;2023-04-05T06:41:35;-0.20;99.90
9437;DHT22;4757;59.334;18.034;2023-04-05T06:44:02;-0.10;99.90
9437;DHT22;4757;59.334;18.034;2023-04-05T06:46:29;0.00;99.90
9437;DHT22;4757;59.334;18.034;2023-04-05T06:48:57;-0.10;99.90
9437;DHT22;4757;59.334;18.034;2023-04-05T06:51:27;0.00;99.90
9437;DHT22;4757;59.334;18.034;2023-04-05T06:53:55;0.00;99.90
9437;DHT22;4757;59.334;18.034;2023-04-05T06:56:22;0.30;99.90
9437;DHT22;4757;59.334;18.034;2023-04-05T06:58:49;0.30;99.90
9437;DHT22;4757;59.334;18.034;2023-04-05T07:01:16;0.30;99.90
9437;DHT22;4757;59.334;18.034;2023-04-05T07:03:44;0.30;99.90
9437;DHT22;4757;59.334;18.034;2023-04-05T07:06:11;0.40;99.90
9437;DHT22;4757;59.334;18.034;2023-04-05T07:08:38;0.60;99.90
9437;DHT22;4757;59.334;18.034;2023-04-05T07:11:05;0.80;99.90
9437;DHT22;4757;59.334;18.034;2023-04-05T07:13:32;0.80;99.90
9437;DHT22;4757;59.334;18.034;2023-04-05T07:16:01;0.80;99.90
9437;DHT22;4757;59.334;18.034;2023-04-05T07:18:29;1.00;99.90
9437;DHT22;4757;59.334;18.034;2023-04-05T07:20:57;1.10;99.90
9437;DHT22;4757;59.334;18.034;2023-04-05T07:23:30;1.10;99.90
9437;DHT22;4757;59.334;18.034;2023-04-05T07:26:01;1.10;99.90
9437;DHT22;4757;59.334;18.034;2023-04-05T07:28:31;1.10;99.90
9437;DHT22;4757;59.334;18.034;2023-04-05T07:30:59;1.10;99.90
9437;DHT22;4757;59.334;18.034;2023-04-05T07:33:27;1.10;99.90
9437;DHT22;4757;59.334;18.034;2023-04-05T07:35:54;1.00;99.90
9437;DHT22;4757;59.334;18.034;2023-04-05T07:38:22;1.00;99.90
9437;DHT22;4757;59.334;18.034;2023-04-05T07:40:50;1.00;99.90
9437;DHT22;4757;59.334;18.034;2023-04-05T07:43:20;0.80;99.90
9437;DHT22;4757;59.334;18.034;2023-04-05T07:45:47;0.80;99.90
9437;DHT22;4757;59.334;18.034;2023-04-05T07:48:14;0.80;99.90
9437;DHT22;4757;59.334;18.034;2023-04-05T07:50:41;0.90;99.90
9437;DHT22;4757;59.334;18.034;2023-04-05T07:53:13;1.00;99.90
9437;DHT22;4757;59.334;18.034;2023-04-05T07:55:41;1.20;99.90
9437;DHT22;4757;59.334;18.034;2023-04-05T07:58:09;1.30;99.90
9437;DHT22;4757;59.334;18.034;2023-04-05T08:00:37;1.50;99.90
9437;DHT22;4757;59.334;18.034;2023-04-05T08:03:05;1.50;99.90
9437;DHT22;4757;59.334;18.034;2023-04-05T08:05:32;1.70;99.90
9437;DHT22;4757;59.334;18.034;2023-04-05T08:07:59;1.70;99.90
9437;DHT22;4757;59.334;18.034;2023-04-05T08:10:27;1.60;99.90
9437;DHT22;4757;59.334;18.034;2023-04-05T08:12:54;1.60;99.90
9437;DHT22;4757;59.334;18.034;2023-04-05T08:15:21;1.50;99.90
9437;DHT22;4757;59.334;18.034;2023-04-05T08:17:48;1.50;99.90
9437;DHT22;4757;59.334;18.034;2023-04-05T08:20:15;1.50;99.90
9437;DHT22;4757;59.334;18.034;2023-04-05T08:22:42;1.60;99.90
9437;DHT22;4757;59.334;18.034;2023-04-05T08:25:09;1.70;99.90
9437;DHT22;4757;59.334;18.034;2023-04-05T08:27:36;1.60;99.90
9437;DHT22;4757;59.334;18.034;2023-04-05T08:30:04;1.70;99.90
9437;DHT22;4757;59.334;18.034;2023-04-05T08:32:32;1.90;99.90
9437;DHT22;4757;59.334;18.034;2023-04-05T08:34:59;2.00;99.90
9437;DHT22;4757;59.334;18.034;2023-04-05T08:37:26;1.90;99.90
9437;DHT22;4757;59.334;18.034;2023-04-05T08:39:53;1.90;99.90
9437;DHT22;4757;59.334;18.034;2023-04-05T08:42:51;2.10;99.90
9437;DHT22;4757;59.334;18.034;2023-04-05T08:45:19;2.00;99.90
9437;DHT22;4757;59.334;18.034;2023-04-05T08:47:48;2.10;99.90
9437;DHT22;4757;59.334;18.034;2023-04-05T08:50:18;2.10;99.90
9437;DHT22;4757;59.334;18.034;2023-04-05T08:52:45;2.10;99.90
9437;DHT22;4757;59.334;18.034;2023-04-05T08:55:16;2.10;99.90
9437;DHT22;4757;59.334;18.034;2023-04-05T08:57:48;2.00;99.90
9437;DHT22;4757;59.334;18.034;2023-04-05T09:00:17;2.00;99.90
9437;DHT22;4757;59.334;18.034;2023-04-05T09:02:47;2.10;99.90
9437;DHT22;4757;59.334;18.034;2023-04-05T09:05:18;2.00;99.90
9437;DHT22;4757;59.334;18.034;2023-04-05T09:07:47;2.20;99.90
9437;DHT22;4757;59.334;18.034;2023-04-05T09:10:14;2.40;99.90
9437;DHT22;4757;59.334;18.034;2023-04-05T09:12:44;2.60;99.90
9437;DHT22;4757;59.334;18.034;2023-04-05T09:15:13;2.60;99.90
9437;DHT22;4757;59.334;18.034;2023-04-05T09:17:41;2.80;99.90
9437;DHT22;4757;59.334;18.034;2023-04-05T09:20:09;2.80;99.90
9437;DHT22;4757;59.334;18.034;2023-04-05T09:22:44;3.00;99.90
9437;DHT22;4757;59.334;18.034;2023-04-05T09:25:33;3.10;99.90
9437;DHT22;4757;59.334;18.034;2023-04-05T09:28:00;3.10;99.90
9437;DHT22;4757;59.334;18.034;2023-04-05T09:30:29;3.00;99.90
9437;DHT22;4757;59.334;18.034;2023-04-05T09:32:56;2.70;99.90
9437;DHT22;4757;59.334;18.034;2023-04-05T09:35:24;2.60;99.90
9437;DHT22;4757;59.334;18.034;2023-04-05T09:37:54;2.70;99.90
9437;DHT22;4757;59.334;18.034;2023-04-05T09:40:22;3.00;99.90
9437;DHT22;4757;59.334;18.034;2023-04-05T09:42:49;3.10;99.90
9437;DHT22;4757;59.334;18.034;2023-04-05T09:45:18;3.00;99.90
9437;DHT22;4757;59.334;18.034;2023-04-05T09:47:56;3.00;99.90
9437;DHT22;4757;59.334;18.034;2023-04-05T09:50:24;2.60;99.90
9437;DHT22;4757;59.334;18.034;2023-04-05T09:52:51;2.60;99.90
9437;DHT22;4757;59.334;18.034;2023-04-05T09:55:30;2.70;99.90
9437;DHT22;4757;59.334;18.034;2023-04-05T09:58:00;2.70;99.90
9437;DHT22;4757;59.334;18.034;2023-04-05T10:00:28;2.70;99.90
9437;DHT22;4757;59.334;18.034;2023-04-05T10:02:58;2.70;99.90
9437;DHT22;4757;59.334;18.034;2023-04-05T10:05:28;2.70;99.90
9437;DHT22;4757;59.334;18.034;2023-04-05T10:07:55;2.90;99.90
9437;DHT22;4757;59.334;18.034;2023-04-05T10:10:23;2.70;99.90
9437;DHT22;4757;59.334;18.034;2023-04-05T10:12:51;2.30;99.90
9437;DHT22;4757;59.334;18.034;2023-04-05T10:15:19;2.10;99.90
9437;DHT22;4757;59.334;18.034;2023-04-05T10:17:52;2.30;99.90
9437;DHT22;4757;59.334;18.034;2023-04-05T10:20:23;2.20;99.90
9437;DHT22;4757;59.334;18.034;2023-04-05T10:23:12;2.30;99.90
9437;DHT22;4757;59.334;18.034;2023-04-05T10:28:42;2.10;99.90
9437;DHT22;4757;59.334;18.034;2023-04-05T10:31:30;2.00;99.90
9437;DHT22;4757;59.334;18.034;2023-04-05T10:34:06;1.90;99.90
9437;DHT22;4757;59.334;18.034;2023-04-05T10:39:26;1.90;99.90
9437;DHT22;4757;59.334;18.034;2023-04-05T10:41:59;1.80;99.90
9437;DHT22;4757;59.334;18.034;2023-04-05T10:44:30;1.90;99.90
9437;DHT22;4757;59.334;18.034;2023-04-05T10:47:01;1.70;99.90
9437;DHT22;4757;59.334;18.034;2023-04-05T10:49:41;1.70;99.90
9437;DHT22;4757;59.334;18.034;2023-04-05T10:52:08;1.70;99.90
9437;DHT22;4757;59.334;18.034;2023-04-05T10:54:36;1.80;99.90
9437;DHT22;4757;59.334;18.034;2023-04-05T10:57:08;1.40;99.90
9437;DHT22;4757;59.334;18.034;2023-04-05T10:59:44;1.00;99.90
9437;DHT22;4757;59.334;18.034;2023-04-05T11:02:13;0.80;99.90
9437;DHT22;4757;59.334;18.034;2023-04-05T11:04:40;0.80;99.90
9437;DHT22;4757;59.334;18.034;2023-04-05T11:07:16;0.90;99.90
9437;DHT22;4757;59.334;18.034;2023-04-05T11:10:03;0.70;99.90
9437;DHT22;4757;59.334;18.034;2023-04-05T11:18:06;0.50;99.90
9437;DHT22;4757;59.334;18.034;2023-04-05T11:23:16;0.60;99.90
9437;DHT22;4757;59.334;18.034;2023-04-05T11:25:50;0.60;99.90
9437;DHT22;4757;59.334;18.034;2023-04-05T11:28:33;0.60;99.90
9437;DHT22;4757;59.334;18.034;2023-04-05T11:31:19;0.50;99.90
9437;DHT22;4757;59.334;18.034;2023-04-05T11:34:05;0.50;99.90
9437;DHT22;4757;59.334;18.034;2023-04-05T11:36:42;0.50;99.90
9437;DHT22;4757;59.334;18.034;2023-04-05T11:44:20;0.60;99.90
9437;DHT22;4757;59.334;18.034;2023-04-05T11:46:48;0.60;99.90
9437;DHT22;4757;59.334;18.034;2023-04-05T11:49:15;0.60;99.90
9437;DHT22;4757;59.334;18.034;2023-04-05T11:51:42;0.60;99.90
9437;DHT22;4757;59.334;18.034;2023-04-05T11:54:10;0.50;99.90
9437;DHT22;4757;59.334;18.034;2023-04-05T11:56:37;0.40;99.90
9437;DHT22;4757;59.334;18.034;2023-04-05T11:59:04;0.40;99.90
9437;DHT22;4757;59.334;18.034;2023-04-05T12:01:31;0.40;99.90
9437;DHT22;4757;59.334;18.034;2023-04-05T12:03:58;0.40;99.90
9437;DHT22;4757;59.334;18.034;2023-04-05T12:06:28;0.40;99.90
9437;DHT22;4757;59.334;18.034;2023-04-05T12:08:55;0.40;99.90
9437;DHT22;4757;59.334;18.034;2023-04-05T12:11:27;0.50;99.90
9437;DHT22;4757;59.334;18.034;2023-04-05T12:13:58;0.50;99.90
9437;DHT22;4757;59.334;18.034;2023-04-05T12:16:26;0.40;99.90
9437;DHT22;4757;59.334;18.034;2023-04-05T12:19:02;0.50;99.90
9437;DHT22;4757;59.334;18.034;2023-04-05T12:21:30;0.60;99.90
9437;DHT22;4757;59.334;18.034;2023-04-05T12:23:58;0.60;99.90
9437;DHT22;4757;59.334;18.034;2023-04-05T12:26:25;0.50;99.90
9437;DHT22;4757;59.334;18.034;2023-04-05T12:28:57;0.50;99.90
9437;DHT22;4757;59.334;18.034;2023-04-05T12:31:40;0.40;99.90
9437;DHT22;4757;59.334;18.034;2023-04-05T12:34:08;0.60;99.90
9437;DHT22;4757;59.334;18.034;2023-04-05T12:36:36;0.50;99.90
9437;DHT22;4757;59.334;18.034;2023-04-05T12:39:07;0.50;99.90
9437;DHT22;4757;59.334;18.034;2023-04-05T12:41:35;0.50;99.90
9437;DHT22;4757;59.334;18.034;2023-04-05T12:44:37;0.70;99.90
9437;DHT22;4757;59.334;18.034;2023-04-05T12:47:03;0.60;99.90
9437;DHT22;4757;59.334;18.034;2023-04-05T12:49:39;0.70;99.90
9437;DHT22;4757;59.334;18.034;2023-04-05T12:52:07;0.80;99.90
9437;DHT22;4757;59.334;18.034;2023-04-05T12:54:34;0.80;99.90
9437;DHT22;4757;59.334;18.034;2023-04-05T12:57:01;0.60;99.90
9437;DHT22;4757;59.334;18.034;2023-04-05T12:59:30;0.60;99.90
9437;DHT22;4757;59.334;18.034;2023-04-05T13:01:57;0.70;99.90
9437;DHT22;4757;59.334;18.034;2023-04-05T13:04:25;0.70;99.90
9437;DHT22;4757;59.334;18.034;2023-04-05T13:06:52;0.80;99.90
9437;DHT22;4757;59.334;18.034;2023-04-05T13:09:20;0.80;99.90
9437;DHT22;4757;59.334;18.034;2023-04-05T13:11:47;0.70;99.90
9437;DHT22;4757;59.334;18.034;2023-04-05T13:14:16;0.70;99.90
9437;DHT22;4757;59.334;18.034;2023-04-05T13:16:43;0.60;99.90
9437;DHT22;4757;59.334;18.034;2023-04-05T13:19:10;0.60;99.90
9437;DHT22;4757;59.334;18.034;2023-04-05T13:21:38;0.60;99.90
9437;DHT22;4757;59.334;18.034;2023-04-05T13:24:05;0.60;99.90
9437;DHT22;4757;59.334;18.034;2023-04-05T13:26:32;0.80;99.90
9437;DHT22;4757;59.334;18.034;2023-04-05T13:28:59;0.70;99.90
9437;DHT22;4757;59.334;18.034;2023-04-05T13:31:27;0.80;99.90
9437;DHT22;4757;59.334;18.034;2023-04-05T13:33:54;0.70;99.90
9437;DHT22;4757;59.334;18.034;2023-04-05T13:36:25;0.80;99.90
9437;DHT22;4757;59.334;18.034;2023-04-05T13:38:52;0.70;99.90
9437;DHT22;4757;59.334;18.034;2023-04-05T13:41:19;0.60;99.90
9437;DHT22;4757;59.334;18.034;2023-04-05T13:43:47;0.70;99.90
9437;DHT22;4757;59.334;18.034;2023-04-05T13:46:13;0.70;99.90
9437;DHT22;4757;59.334;18.034;2023-04-05T13:48:41;0.70;99.90
9437;DHT22;4757;59.334;18.034;2023-04-05T13:51:08;0.70;99.90
9437;DHT22;4757;59.334;18.034;2023-04-05T13:53:44;0.70;99.90
9437;DHT22;4757;59.334;18.034;2023-04-05T13:56:14;0.70;99.90
9437;DHT22;4757;59.334;18.034;2023-04-05T13:58:42;0.70;99.90
9437;DHT22;4757;59.334;18.034;2023-04-05T14:01:13;0.60;99.90
9437;DHT22;4757;59.334;18.034;2023-04-05T14:03:40;0.80;99.90
9437;DHT22;4757;59.334;18.034;2023-04-05T14:06:08;0.70;99.90
9437;DHT22;4757;59.334;18.034;2023-04-05T14:08:35;0.60;99.90
9437;DHT22;4757;59.334;18.034;2023-04-05T14:11:03;0.60;99.90
9437;DHT22;4757;59.334;18.034;2023-04-05T14:13:30;0.60;99.90
9437;DHT22;4757;59.334;18.034;2023-04-05T14:15:57;0.60;99.90
9437;DHT22;4757;59.334;18.034;2023-04-05T14:18:24;0.60;99.90
9437;DHT22;4757;59.334;18.034;2023-04-05T14:20:52;0.60;99.90
9437;DHT22;4757;59.334;18.034;2023-04-05T14:23:22;0.60;99.90
9437;DHT22;4757;59.334;18.034;2023-04-05T14:25:49;0.60;99.90
9437;DHT22;4757;59.334;18.034;2023-04-05T14:47:24;0.70;99.90
9437;DHT22;4757;59.334;18.034;2023-04-05T14:49:52;0.80;99.90
9437;DHT22;4757;59.334;18.034;2023-04-05T14:52:19;0.90;99.90
9437;DHT22;4757;59.334;18.034;2023-04-05T14:54:46;1.00;99.90
9437;DHT22;4757;59.334;18.034;2023-04-05T14:57:14;1.00;99.90
9437;DHT22;4757;59.334;18.034;2023-04-05T14:59:41;0.80;99.90
9437;DHT22;4757;59.334;18.034;2023-04-05T15:02:09;0.80;99.90
9437;DHT22;4757;59.334;18.034;2023-04-05T15:04:37;0.80;99.90
9437;DHT22;4757;59.334;18.034;2023-04-05T15:07:04;0.70;99.90
9437;DHT22;4757;59.334;18.034;2023-04-05T15:09:31;0.70;99.90
9437;DHT22;4757;59.334;18.034;2023-04-05T15:11:59;0.70;99.90
9437;DHT22;4757;59.334;18.034;2023-04-05T15:14:26;0.80;99.90
9437;DHT22;4757;59.334;18.034;2023-04-05T15:16:58;0.70;99.90
9437;DHT22;4757;59.334;18.034;2023-04-05T15:19:25;0.70;99.90
9437;DHT22;4757;59.334;18.034;2023-04-05T15:21:53;0.80;99.90
9437;DHT22;4757;59.334;18.034;2023-04-05T15:24:20;0.90;99.90
9437;DHT22;4757;59.334;18.034;2023-04-05T15:26:47;1.00;99.90
9437;DHT22;4757;59.334;18.034;2023-04-05T15:29:14;1.00;99.90
9437;DHT22;4757;59.334;18.034;2023-04-05T15:31:41;1.10;99.90
9437;DHT22;4757;59.334;18.034;2023-04-05T15:34:08;1.00;99.90
9437;DHT22;4757;59.334;18.034;2023-04-05T15:36:35;0.80;99.90
9437;DHT22;4757;59.334;18.034;2023-04-05T15:39:02;0.80;99.90
9437;DHT22;4757;59.334;18.034;2023-04-05T15:41:32;0.90;99.90
9437;DHT22;4757;59.334;18.034;2023-04-05T15:44:00;0.90;99.90
9437;DHT22;4757;59.334;18.034;2023-04-05T15:46:28;0.80;99.90
9437;DHT22;4757;59.334;18.034;2023-04-05T15:48:55;0.90;99.90
9437;DHT22;4757;59.334;18.034;2023-04-05T15:51:22;0.90;99.90
9437;DHT22;4757;59.334;18.034;2023-04-05T15:53:50;1.00;99.90
9437;DHT22;4757;59.334;18.034;2023-04-05T15:56:17;1.00;99.90
9437;DHT22;4757;59.334;18.034;2023-04-05T15:58:44;1.10;99.90
9437;DHT22;4757;59.334;18.034;2023-04-05T16:01:11;1.20;99.90
9437;DHT22;4757;59.334;18.034;2023-04-05T16:03:39;1.20;99.90
9437;DHT22;4757;59.334;18.034;2023-04-05T16:06:06;1.20;99.90
9437;DHT22;4757;59.334;18.034;2023-04-05T16:08:33;1.10;99.90
9437;DHT22;4757;59.334;18.034;2023-04-05T16:11:00;1.20;99.90
9437;DHT22;4757;59.334;18.034;2023-04-05T16:13:27;1.30;99.90
9437;DHT22;4757;59.334;18.034;2023-04-05T16:15:55;1.30;99.90
9437;DHT22;4757;59.334;18.034;2023-04-05T16:18:22;1.30;99.90
9437;DHT22;4757;59.334;18.034;2023-04-05T16:20:50;1.40;99.90
9437;DHT22;4757;59.334;18.034;2023-04-05T16:23:17;1.40;99.90
9437;DHT22;4757;59.334;18.034;2023-04-05T16:25:44;1.40;99.90
9437;DHT22;4757;59.334;18.034;2023-04-05T16:28:11;1.50;99.90
9437;DHT22;4757;59.334;18.034;2023-04-05T16:30:38;1.50;99.90
9437;DHT22;4757;59.334;18.034;2023-04-05T16:33:06;1.50;99.90
9437;DHT22;4757;59.334;18.034;2023-04-05T16:35:33;1.60;99.90
9437;DHT22;4757;59.334;18.034;2023-04-05T16:38:00;1.60;99.90
9437;DHT22;4757;59.334;18.034;2023-04-05T16:40:28;1.60;99.90
9437;DHT22;4757;59.334;18.034;2023-04-05T16:42:55;1.70;99.90
9437;DHT22;4757;59.334;18.034;2023-04-05T16:45:23;1.60;99.90
9437;DHT22;4757;59.334;18.034;2023-04-05T16:48:05;1.60;99.90
9437;DHT22;4757;59.334;18.034;2023-04-05T16:50:34;1.60;99.90
9437;DHT22;4757;59.334;18.034;2023-04-05T16:53:03;1.60;99.90
9437;DHT22;4757;59.334;18.034;2023-04-05T16:55:32;1.60;99.90